Time;durP1;ratioP1;P1;durP2;ratioP2;P2;SDS_P1;SDS_P2;PMS_P1;PMS_P2;Temp;Humidity;BMP_temperature;BMP_pressure;BME280_temperature;BME280_humidity;BME280_pressure;Samples;Min_cycle;Max_cycle;Signal;HPM_P1;HPM_P2
2022/12/04 00:00:32;;;;;;;19.40;13.90;;;;;;;;;;5081020;28;20246;-74
2022/12/04 00:02:59;;;;;;;19.20;15.13;;;;;;;;;;5083759;28;20429;-72
2022/12/04 00:05:26;;;;;;;19.67;14.37;;;;;;;;;;5082260;28;20510;-76
2022/12/04 00:07:52;;;;;;;22.27;14.97;;;;;;;;;;5052486;28;20219;-76
2022/12/04 00:10:18;;;;;;;24.17;16.40;;;;;;;;;;5061455;28;20480;-74
2022/12/04 00:12:44;;;;;;;24.83;15.90;;;;;;;;;;5089044;28;20238;-75
2022/12/04 00:15:10;;;;;;;22.10;14.97;;;;;;;;;;5088612;28;20180;-75
2022/12/04 00:17:37;;;;;;;19.17;13.93;;;;;;;;;;5081333;28;20242;-74
2022/12/04 00:20:03;;;;;;;20.80;14.53;;;;;;;;;;5064808;28;20276;-73
2022/12/04 00:22:29;;;;;;;21.70;14.67;;;;;;;;;;5092851;28;20210;-73
2022/12/04 00:24:55;;;;;;;24.57;15.20;;;;;;;;;;5086350;28;20176;-73
2022/12/04 00:27:21;;;;;;;21.20;15.00;;;;;;;;;;5079037;28;20675;-74
2022/12/04 00:29:47;;;;;;;20.17;14.40;;;;;;;;;;5089839;28;20175;-74
2022/12/04 00:32:14;;;;;;;20.83;14.70;;;;;;;;;;5072076;28;20202;-80
2022/12/04 00:34:40;;;;;;;23.23;15.37;;;;;;;;;;5083264;28;20260;-79
2022/12/04 00:37:06;;;;;;;23.47;15.73;;;;;;;;;;5071675;28;20256;-78
2022/12/04 00:39:32;;;;;;;20.97;14.87;;;;;;;;;;5087260;28;20215;-77
2022/12/04 00:41:59;;;;;;;26.10;16.17;;;;;;;;;;5073003;28;20218;-78
2022/12/04 00:44:25;;;;;;;26.33;16.20;;;;;;;;;;5073701;28;20237;-77
2022/12/04 00:46:51;;;;;;;23.77;14.73;;;;;;;;;;5065168;28;20185;-79
2022/12/04 00:49:17;;;;;;;24.63;15.40;;;;;;;;;;5092452;28;20212;-79
2022/12/04 00:51:43;;;;;;;22.53;13.90;;;;;;;;;;5080512;28;20241;-80
2022/12/04 00:54:09;;;;;;;21.17;14.63;;;;;;;;;;5071773;28;20266;-79
2022/12/04 00:56:36;;;;;;;32.63;18.33;;;;;;;;;;5048013;28;20173;-78
2022/12/04 00:59:02;;;;;;;21.90;14.63;;;;;;;;;;5070090;28;20199;-78
2022/12/04 01:01:29;;;;;;;21.27;13.87;;;;;;;;;;5090060;28;20194;-78
2022/12/04 01:03:55;;;;;;;21.80;15.07;;;;;;;;;;5071786;28;20210;-78
2022/12/04 01:06:24;;;;;;;21.40;14.50;;;;;;;;;;5085888;28;20180;-79
2022/12/04 01:08:51;;;;;;;19.97;14.20;;;;;;;;;;5083035;28;20274;-78
2022/12/04 01:11:18;;;;;;;20.27;14.67;;;;;;;;;;5087424;28;20177;-78
2022/12/04 01:13:44;;;;;;;18.10;13.67;;;;;;;;;;5068886;28;20218;-79
2022/12/04 01:16:22;;;;;;;18.70;13.73;;;;;;;;;;5090950;28;20181;-78
2022/12/04 01:18:48;;;;;;;19.53;14.50;;;;;;;;;;5058064;28;20273;-78
2022/12/04 01:21:15;;;;;;;20.90;14.77;;;;;;;;;;5068310;28;20263;-78
2022/12/04 01:23:42;;;;;;;19.10;14.07;;;;;;;;;;5082432;28;20229;-78
2022/12/04 01:26:09;;;;;;;19.43;14.47;;;;;;;;;;5087635;28;20248;-79
2022/12/04 01:28:35;;;;;;;19.33;13.90;;;;;;;;;;5095769;28;20200;-77
2022/12/04 01:31:09;;;;;;;20.83;14.83;;;;;;;;;;5090412;28;20651;-78
2022/12/04 01:33:36;;;;;;;19.13;13.80;;;;;;;;;;5088876;28;20157;-78
2022/12/04 01:36:04;;;;;;;17.77;12.60;;;;;;;;;;5079053;28;20629;-77
2022/12/04 01:38:30;;;;;;;18.47;13.60;;;;;;;;;;5077380;28;20713;-77
2022/12/04 01:40:57;;;;;;;17.93;13.50;;;;;;;;;;5083016;28;20180;-77
2022/12/04 01:43:24;;;;;;;19.73;14.30;;;;;;;;;;5073828;28;20184;-79
2022/12/04 01:45:52;;;;;;;34.53;18.67;;;;;;;;;;5091088;28;20183;-77
2022/12/04 01:48:19;;;;;;;23.33;14.57;;;;;;;;;;5098412;28;20707;-78
2022/12/04 01:50:45;;;;;;;19.60;12.90;;;;;;;;;;5075025;28;20280;-78
2022/12/04 01:53:12;;;;;;;24.17;15.10;;;;;;;;;;5089802;28;20198;-79
2022/12/04 01:55:38;;;;;;;21.07;14.23;;;;;;;;;;5085942;28;20533;-78
2022/12/04 01:58:05;;;;;;;19.03;13.70;;;;;;;;;;5089916;28;20344;-78
2022/12/04 02:00:32;;;;;;;21.20;15.27;;;;;;;;;;5095891;28;20205;-78
2022/12/04 02:02:58;;;;;;;18.10;13.53;;;;;;;;;;5100760;28;20192;-79
2022/12/04 02:05:24;;;;;;;20.60;14.30;;;;;;;;;;5072717;28;20688;-78
2022/12/04 02:07:52;;;;;;;20.30;14.27;;;;;;;;;;5090666;28;20234;-78
2022/12/04 02:10:23;;;;;;;21.60;14.10;;;;;;;;;;5102757;28;20281;-78
2022/12/04 02:12:52;;;;;;;19.03;14.23;;;;;;;;;;5099162;28;20180;-78
2022/12/04 02:15:37;;;;;;;18.93;14.17;;;;;;;;;;5094611;28;20177;-78
2022/12/04 02:18:13;;;;;;;21.30;14.63;;;;;;;;;;5094697;28;20219;-78
2022/12/04 02:20:45;;;;;;;20.13;14.93;;;;;;;;;;5085459;28;20185;-78
2022/12/04 02:23:27;;;;;;;20.60;15.13;;;;;;;;;;5098716;28;20183;-78
2022/12/04 02:25:56;;;;;;;20.33;14.57;;;;;;;;;;5091565;28;20200;-78
2022/12/04 02:28:24;;;;;;;19.20;13.63;;;;;;;;;;5093737;28;20200;-78
2022/12/04 02:30:52;;;;;;;20.33;13.73;;;;;;;;;;5088401;28;20289;-78
2022/12/04 02:33:21;;;;;;;19.97;14.37;;;;;;;;;;5086813;28;20177;-78
2022/12/04 02:36:00;;;;;;;21.37;15.03;;;;;;;;;;5091899;28;20810;-78
2022/12/04 02:38:32;;;;;;;21.70;14.57;;;;;;;;;;5075309;28;20196;-78
2022/12/04 02:41:01;;;;;;;19.43;13.67;;;;;;;;;;5093514;28;20189;-77
2022/12/04 02:43:30;;;;;;;22.43;15.60;;;;;;;;;;5090077;28;20182;-78
2022/12/04 02:45:56;;;;;;;22.57;14.57;;;;;;;;;;5084849;28;20185;-78
2022/12/04 02:48:23;;;;;;;20.33;13.97;;;;;;;;;;5077207;28;20220;-78
2022/12/04 02:50:51;;;;;;;22.47;14.57;;;;;;;;;;5085866;28;20207;-78
2022/12/04 02:53:23;;;;;;;22.57;16.17;;;;;;;;;;5087913;28;20229;-78
2022/12/04 02:55:55;;;;;;;20.80;15.03;;;;;;;;;;5082345;28;20272;-79
2022/12/04 02:58:25;;;;;;;20.40;14.07;;;;;;;;;;5089681;28;20206;-78
2022/12/04 03:00:52;;;;;;;21.60;15.20;;;;;;;;;;5080472;28;20185;-78
2022/12/04 03:03:21;;;;;;;20.33;14.10;;;;;;;;;;5071767;28;20800;-78
2022/12/04 03:05:53;;;;;;;21.57;15.83;;;;;;;;;;5093844;28;20180;-78
2022/12/04 03:08:21;;;;;;;19.87;14.13;;;;;;;;;;5079985;28;20214;-79
2022/12/04 03:10:52;;;;;;;19.90;14.43;;;;;;;;;;5087598;28;20191;-78
2022/12/04 03:13:21;;;;;;;18.83;13.33;;;;;;;;;;5087542;28;20175;-78
2022/12/04 03:15:58;;;;;;;22.63;14.23;;;;;;;;;;5075570;28;20181;-78
2022/12/04 03:18:30;;;;;;;21.43;14.10;;;;;;;;;;5088634;28;20568;-78
2022/12/04 03:21:02;;;;;;;19.33;13.27;;;;;;;;;;5093964;28;20188;-79
2022/12/04 03:23:35;;;;;;;19.40;13.70;;;;;;;;;;5087103;28;20212;-78
2022/12/04 03:26:10;;;;;;;19.70;13.50;;;;;;;;;;5088212;28;20975;-78
2022/12/04 03:28:46;;;;;;;16.80;12.03;;;;;;;;;;5092666;28;20204;-78
2022/12/04 03:31:14;;;;;;;18.63;13.43;;;;;;;;;;5093947;28;20192;-78
2022/12/04 03:33:42;;;;;;;18.27;12.43;;;;;;;;;;5086474;28;20679;-78
2022/12/04 03:36:09;;;;;;;18.73;12.70;;;;;;;;;;5097264;28;21131;-78
2022/12/04 03:38:48;;;;;;;15.97;11.43;;;;;;;;;;5057811;28;20286;-80
2022/12/04 03:41:24;;;;;;;17.07;12.10;;;;;;;;;;5091368;28;20187;-78
2022/12/04 03:43:55;;;;;;;17.33;11.93;;;;;;;;;;5094626;28;20862;-78
2022/12/04 03:46:27;;;;;;;16.20;11.60;;;;;;;;;;5085831;28;20181;-78
2022/12/04 03:49:08;;;;;;;14.03;10.30;;;;;;;;;;5096814;28;20231;-78
2022/12/04 03:51:48;;;;;;;15.07;10.47;;;;;;;;;;5062764;28;20177;-77
2022/12/04 03:54:17;;;;;;;15.30;10.70;;;;;;;;;;5088867;28;20182;-77
2022/12/04 03:57:04;;;;;;;15.43;11.30;;;;;;;;;;5076619;28;20183;-78
2022/12/04 03:59:37;;;;;;;14.13;10.47;;;;;;;;;;5080307;28;20212;-78
2022/12/04 04:02:04;;;;;;;14.00;9.90;;;;;;;;;;5082274;28;20177;-78
2022/12/04 04:04:34;;;;;;;15.60;11.00;;;;;;;;;;5079533;28;20195;-78
2022/12/04 04:07:04;;;;;;;15.90;10.80;;;;;;;;;;5072739;28;20196;-79
2022/12/04 04:09:33;;;;;;;15.40;11.13;;;;;;;;;;5084540;28;20287;-78
2022/12/04 04:12:05;;;;;;;14.33;10.40;;;;;;;;;;5073275;28;20226;-77
2022/12/04 04:26:39;;;;;;;14.67;10.47;;;;;;;;;;5047454;28;20604;-78
2022/12/04 04:29:05;;;;;;;13.77;9.87;;;;;;;;;;5073097;28;20214;-78
2022/12/04 04:31:40;;;;;;;13.53;9.97;;;;;;;;;;5084971;28;20173;-78
2022/12/04 04:34:10;;;;;;;12.23;9.40;;;;;;;;;;5097507;28;20258;-77
2022/12/04 04:36:39;;;;;;;14.93;10.33;;;;;;;;;;5093211;28;20257;-78
2022/12/04 04:39:08;;;;;;;15.60;9.80;;;;;;;;;;5074317;28;20307;-79
2022/12/04 04:41:49;;;;;;;13.43;9.73;;;;;;;;;;5080523;28;20181;-77
2022/12/04 04:44:24;;;;;;;13.77;9.77;;;;;;;;;;5086992;28;20180;-77
2022/12/04 04:46:52;;;;;;;21.87;13.30;;;;;;;;;;5081527;28;21101;-77
2022/12/04 04:49:19;;;;;;;14.47;10.17;;;;;;;;;;5071908;28;20329;-77
2022/12/04 04:51:47;;;;;;;13.20;9.33;;;;;;;;;;5083896;28;20188;-77
2022/12/04 04:54:14;;;;;;;12.77;8.93;;;;;;;;;;5078765;28;20185;-77
2022/12/04 04:56:41;;;;;;;14.93;10.23;;;;;;;;;;5083790;28;20616;-78
2022/12/04 04:59:07;;;;;;;15.13;10.17;;;;;;;;;;5068839;28;20208;-78
2022/12/04 05:01:33;;;;;;;13.10;9.90;;;;;;;;;;5079155;28;20260;-78
2022/12/04 05:04:00;;;;;;;12.33;8.80;;;;;;;;;;5090320;28;20602;-77
2022/12/04 05:06:26;;;;;;;13.33;9.40;;;;;;;;;;5061924;28;20199;-78
2022/12/04 05:08:52;;;;;;;13.30;9.60;;;;;;;;;;5081846;28;20213;-78
2022/12/04 05:11:18;;;;;;;12.13;9.03;;;;;;;;;;5070051;28;20180;-77
2022/12/04 05:13:45;;;;;;;12.37;8.53;;;;;;;;;;5082069;28;21653;-77
2022/12/04 05:16:12;;;;;;;12.77;8.73;;;;;;;;;;5085409;28;20237;-77
2022/12/04 05:18:39;;;;;;;12.07;8.57;;;;;;;;;;5091061;28;20200;-78
2022/12/04 05:21:06;;;;;;;11.90;8.67;;;;;;;;;;5090454;28;20186;-78
2022/12/04 05:23:32;;;;;;;11.83;8.23;;;;;;;;;;5087340;28;20179;-77
2022/12/04 05:26:00;;;;;;;13.73;9.10;;;;;;;;;;5066426;28;20257;-77
2022/12/04 05:28:26;;;;;;;13.20;8.93;;;;;;;;;;5085475;28;20212;-77
2022/12/04 05:30:59;;;;;;;11.50;8.30;;;;;;;;;;5091191;28;20188;-77
2022/12/04 05:33:26;;;;;;;12.67;9.03;;;;;;;;;;5076084;28;20175;-77
2022/12/04 05:36:03;;;;;;;12.17;8.67;;;;;;;;;;5083761;28;20172;-77
2022/12/04 05:38:29;;;;;;;13.37;9.00;;;;;;;;;;5085598;28;20215;-78
2022/12/04 05:40:57;;;;;;;14.33;8.93;;;;;;;;;;5059660;28;20185;-78
2022/12/04 05:43:23;;;;;;;13.53;8.57;;;;;;;;;;5078487;28;20172;-78
2022/12/04 05:45:49;;;;;;;12.00;7.93;;;;;;;;;;5079715;28;20189;-79
2022/12/04 05:48:15;;;;;;;11.70;8.67;;;;;;;;;;5089863;28;20208;-79
2022/12/04 05:50:42;;;;;;;11.87;8.67;;;;;;;;;;5067036;28;20840;-78
2022/12/04 05:53:08;;;;;;;10.60;7.50;;;;;;;;;;5089457;28;20234;-78
2022/12/04 05:55:34;;;;;;;12.07;9.13;;;;;;;;;;5066599;28;20204;-77
2022/12/04 05:58:01;;;;;;;11.87;8.50;;;;;;;;;;5082640;28;20431;-77
2022/12/04 06:00:27;;;;;;;12.10;8.73;;;;;;;;;;5063276;28;20177;-77
2022/12/04 06:02:53;;;;;;;11.03;8.20;;;;;;;;;;5087380;28;20283;-77
2022/12/04 06:05:19;;;;;;;10.27;7.67;;;;;;;;;;5084894;28;20188;-77
2022/12/04 06:07:46;;;;;;;12.40;8.10;;;;;;;;;;5085027;28;20837;-77
2022/12/04 06:10:12;;;;;;;12.87;8.30;;;;;;;;;;5072819;28;20584;-79
2022/12/04 06:12:38;;;;;;;12.17;8.23;;;;;;;;;;5085153;28;20177;-79
2022/12/04 06:15:04;;;;;;;11.87;8.37;;;;;;;;;;5087525;28;20180;-78
2022/12/04 06:17:31;;;;;;;11.17;8.10;;;;;;;;;;5096381;28;20802;-78
2022/12/04 06:19:57;;;;;;;11.73;7.93;;;;;;;;;;5078555;28;20185;-77
2022/12/04 06:22:23;;;;;;;12.40;9.20;;;;;;;;;;5087349;28;20314;-79
2022/12/04 06:24:49;;;;;;;11.53;7.93;;;;;;;;;;5088687;28;20172;-79
2022/12/04 06:27:15;;;;;;;12.23;8.50;;;;;;;;;;5101573;28;20598;-77
2022/12/04 06:29:41;;;;;;;13.27;8.47;;;;;;;;;;5093633;28;20196;-78
2022/12/04 06:32:08;;;;;;;11.53;9.03;;;;;;;;;;5086943;28;20495;-77
2022/12/04 06:34:34;;;;;;;12.73;8.00;;;;;;;;;;5087303;28;20424;-77
2022/12/04 06:37:00;;;;;;;11.40;8.10;;;;;;;;;;5070079;28;20591;-77
2022/12/04 06:39:26;;;;;;;11.67;8.50;;;;;;;;;;5081688;28;20263;-77
2022/12/04 06:41:53;;;;;;;12.73;8.10;;;;;;;;;;5079149;28;20185;-77
2022/12/04 06:44:19;;;;;;;12.07;8.10;;;;;;;;;;5083543;28;20183;-78
2022/12/04 06:46:45;;;;;;;11.90;8.47;;;;;;;;;;5066531;28;20184;-78
2022/12/04 06:49:11;;;;;;;10.30;7.63;;;;;;;;;;5094712;28;20200;-77
2022/12/04 06:51:39;;;;;;;11.57;8.40;;;;;;;;;;5076119;28;20180;-78
2022/12/04 06:54:06;;;;;;;12.70;8.50;;;;;;;;;;5084999;28;20222;-77
2022/12/04 06:56:32;;;;;;;10.87;7.67;;;;;;;;;;5045997;28;20185;-78
2022/12/04 06:58:59;;;;;;;10.27;8.03;;;;;;;;;;5057526;28;20196;-77
2022/12/04 07:01:30;;;;;;;11.40;8.03;;;;;;;;;;5093170;28;20186;-77
2022/12/04 07:03:57;;;;;;;12.83;8.87;;;;;;;;;;5087102;28;20224;-78
2022/12/04 07:06:24;;;;;;;12.53;9.13;;;;;;;;;;5073403;28;20258;-77
2022/12/04 07:08:51;;;;;;;12.87;9.00;;;;;;;;;;5084414;28;20386;-78
2022/12/04 07:11:18;;;;;;;12.33;8.43;;;;;;;;;;5088135;28;20208;-77
2022/12/04 07:13:44;;;;;;;12.03;8.47;;;;;;;;;;5084971;28;20188;-78
2022/12/04 07:16:12;;;;;;;11.77;8.17;;;;;;;;;;5083986;28;20181;-78
2022/12/04 07:18:38;;;;;;;11.03;7.50;;;;;;;;;;5077137;28;20636;-78
2022/12/04 07:21:06;;;;;;;11.50;8.30;;;;;;;;;;5068054;28;20603;-77
2022/12/04 07:23:32;;;;;;;12.67;9.10;;;;;;;;;;5087732;28;20602;-78
2022/12/04 07:25:58;;;;;;;10.90;8.30;;;;;;;;;;5094819;28;20204;-79
2022/12/04 07:28:25;;;;;;;11.67;8.60;;;;;;;;;;5081292;28;20210;-78
2022/12/04 07:30:51;;;;;;;11.13;7.87;;;;;;;;;;5079737;28;20185;-78
2022/12/04 07:33:17;;;;;;;11.43;7.90;;;;;;;;;;5077178;28;20192;-78
2022/12/04 07:35:43;;;;;;;11.57;8.17;;;;;;;;;;5095554;28;20207;-78
2022/12/04 07:38:09;;;;;;;12.67;7.87;;;;;;;;;;5084533;28;21010;-78
2022/12/04 07:40:36;;;;;;;10.73;7.87;;;;;;;;;;5089659;28;20180;-79
2022/12/04 07:43:03;;;;;;;11.70;8.60;;;;;;;;;;5058270;28;20216;-78
2022/12/04 07:45:29;;;;;;;12.20;8.13;;;;;;;;;;5066501;28;20528;-77
2022/12/04 07:47:55;;;;;;;11.30;7.20;;;;;;;;;;5057933;28;20723;-77
2022/12/04 07:50:21;;;;;;;10.83;8.07;;;;;;;;;;5075778;28;20246;-78
2022/12/04 07:52:47;;;;;;;13.33;8.80;;;;;;;;;;5081398;28;20211;-78
2022/12/04 07:55:14;;;;;;;11.60;8.07;;;;;;;;;;5080918;28;20192;-78
2022/12/04 07:57:40;;;;;;;10.73;7.87;;;;;;;;;;5080686;28;20729;-78
2022/12/04 08:00:06;;;;;;;11.83;8.17;;;;;;;;;;5069096;28;20205;-78
2022/12/04 08:02:38;;;;;;;14.67;8.33;;;;;;;;;;5084435;28;20187;-78
2022/12/04 08:05:04;;;;;;;12.63;8.20;;;;;;;;;;5080340;28;20176;-78
2022/12/04 08:07:31;;;;;;;13.97;8.60;;;;;;;;;;5082970;28;20653;-79
2022/12/04 08:09:58;;;;;;;13.60;9.07;;;;;;;;;;5091271;28;20785;-76
2022/12/04 08:12:24;;;;;;;12.40;9.37;;;;;;;;;;5071318;28;20187;-74
2022/12/04 08:14:50;;;;;;;12.70;8.70;;;;;;;;;;5087789;28;20189;-77
2022/12/04 08:17:16;;;;;;;12.57;8.83;;;;;;;;;;5093329;28;20180;-81
2022/12/04 08:19:42;;;;;;;12.73;8.87;;;;;;;;;;5074374;28;20661;-80
2022/12/04 08:22:09;;;;;;;12.33;8.67;;;;;;;;;;5084521;28;20184;-79
2022/12/04 08:24:35;;;;;;;10.67;8.03;;;;;;;;;;5087661;28;20200;-78
2022/12/04 08:27:01;;;;;;;11.73;8.30;;;;;;;;;;5092939;28;20984;-79
2022/12/04 08:29:27;;;;;;;12.27;8.20;;;;;;;;;;5087648;28;20204;-78
2022/12/04 08:31:53;;;;;;;11.03;8.53;;;;;;;;;;5090014;28;20180;-78
2022/12/04 08:34:19;;;;;;;12.53;8.93;;;;;;;;;;5084728;28;20180;-77
2022/12/04 08:36:46;;;;;;;11.23;7.80;;;;;;;;;;5071354;28;20176;-78
2022/12/04 08:39:12;;;;;;;12.10;8.60;;;;;;;;;;5091815;28;20231;-78
2022/12/04 08:41:38;;;;;;;12.00;8.83;;;;;;;;;;5075980;28;20280;-78
2022/12/04 08:44:04;;;;;;;10.90;8.20;;;;;;;;;;5081962;28;20190;-81
2022/12/04 08:46:30;;;;;;;13.40;8.77;;;;;;;;;;5077116;28;20596;-78
2022/12/04 08:48:57;;;;;;;12.67;8.20;;;;;;;;;;5068590;28;20220;-78
2022/12/04 08:51:24;;;;;;;11.83;8.37;;;;;;;;;;5089676;28;20195;-78
2022/12/04 08:53:55;;;;;;;12.13;8.80;;;;;;;;;;5086545;28;20181;-78
2022/12/04 08:56:21;;;;;;;10.63;7.70;;;;;;;;;;5069620;28;20176;-77
2022/12/04 08:58:48;;;;;;;10.27;8.10;;;;;;;;;;5078580;28;20204;-78
2022/12/04 09:01:14;;;;;;;10.40;7.33;;;;;;;;;;5090373;28;20797;-78
2022/12/04 09:03:40;;;;;;;11.30;7.90;;;;;;;;;;5090789;28;20181;-77
2022/12/04 09:06:07;;;;;;;9.60;7.27;;;;;;;;;;5090813;28;20240;-77
2022/12/04 09:08:34;;;;;;;10.07;7.33;;;;;;;;;;5071580;28;20310;-78
2022/12/04 09:11:08;;;;;;;12.60;9.03;;;;;;;;;;5086647;28;20181;-77
2022/12/04 09:13:34;;;;;;;12.23;8.90;;;;;;;;;;5091093;28;20206;-77
2022/12/04 09:16:03;;;;;;;10.67;7.97;;;;;;;;;;5088391;28;21532;-77
2022/12/04 09:18:29;;;;;;;12.13;8.67;;;;;;;;;;5092046;28;20211;-78
2022/12/04 09:20:59;;;;;;;11.17;8.27;;;;;;;;;;5085033;28;20188;-77
2022/12/04 09:23:25;;;;;;;11.50;8.33;;;;;;;;;;5056243;28;20552;-78
2022/12/04 09:25:52;;;;;;;10.50;7.53;;;;;;;;;;5089951;28;20192;-78
2022/12/04 09:28:18;;;;;;;11.07;7.93;;;;;;;;;;5083570;28;20295;-78
2022/12/04 09:30:45;;;;;;;9.23;6.70;;;;;;;;;;5074325;28;20197;-78
2022/12/04 09:33:11;;;;;;;9.70;7.07;;;;;;;;;;5090727;28;20179;-77
2022/12/04 09:35:40;;;;;;;11.27;7.73;;;;;;;;;;5072426;28;20181;-78
2022/12/04 09:38:07;;;;;;;11.10;7.40;;;;;;;;;;5084400;28;20200;-78
2022/12/04 09:40:38;;;;;;;11.63;7.93;;;;;;;;;;5071916;28;20188;-78
2022/12/04 09:43:26;;;;;;;11.50;8.30;;;;;;;;;;5090802;28;20217;-78
2022/12/04 09:45:55;;;;;;;12.87;8.73;;;;;;;;;;5073850;28;20200;-78
2022/12/04 09:48:22;;;;;;;11.40;8.33;;;;;;;;;;5089577;28;20208;-78
2022/12/04 09:50:49;;;;;;;10.87;7.60;;;;;;;;;;5068596;28;20297;-78
2022/12/04 09:53:15;;;;;;;10.83;7.87;;;;;;;;;;5093816;28;20236;-78
2022/12/04 09:56:01;;;;;;;10.70;7.83;;;;;;;;;;5075587;28;20350;-77
2022/12/04 09:58:30;;;;;;;10.13;7.73;;;;;;;;;;5078189;28;20227;-78
2022/12/04 10:00:57;;;;;;;9.87;7.70;;;;;;;;;;5072202;28;20184;-78
2022/12/04 10:03:26;;;;;;;11.07;8.00;;;;;;;;;;5077430;28;20193;-78
2022/12/04 10:05:55;;;;;;;9.40;7.07;;;;;;;;;;5087442;28;20181;-78
2022/12/04 10:08:30;;;;;;;10.13;7.63;;;;;;;;;;5052476;28;20273;-78
2022/12/04 10:11:03;;;;;;;11.50;8.70;;;;;;;;;;5073707;28;20180;-78
2022/12/04 10:13:48;;;;;;;11.57;8.30;;;;;;;;;;5088137;28;20588;-79
2022/12/04 10:16:22;;;;;;;9.70;7.80;;;;;;;;;;5071504;28;20181;-78
2022/12/04 10:18:57;;;;;;;12.20;8.50;;;;;;;;;;5089953;28;20212;-78
2022/12/04 10:21:26;;;;;;;11.37;7.93;;;;;;;;;;5092810;28;20194;-79
2022/12/04 10:24:11;;;;;;;10.50;7.77;;;;;;;;;;5093700;28;20189;-78
2022/12/04 10:26:41;;;;;;;12.43;8.20;;;;;;;;;;5094156;28;20200;-79
2022/12/04 10:29:08;;;;;;;12.10;8.10;;;;;;;;;;5089740;28;20336;-78
2022/12/04 10:31:36;;;;;;;10.90;7.40;;;;;;;;;;5091500;28;20246;-78
2022/12/04 10:34:06;;;;;;;12.83;8.67;;;;;;;;;;5074343;28;20255;-78
2022/12/04 10:36:33;;;;;;;12.73;9.00;;;;;;;;;;5095676;28;20176;-78
2022/12/04 10:38:59;;;;;;;15.67;10.43;;;;;;;;;;5093808;28;20204;-78
2022/12/04 10:41:40;;;;;;;15.47;10.87;;;;;;;;;;5096064;28;20208;-78
2022/12/04 10:44:12;;;;;;;17.13;11.97;;;;;;;;;;5089387;28;20193;-79
2022/12/04 10:46:38;;;;;;;18.13;11.87;;;;;;;;;;5086167;28;20188;-78
2022/12/04 10:49:08;;;;;;;17.00;11.57;;;;;;;;;;5087641;28;20220;-79
2022/12/04 10:51:41;;;;;;;17.60;12.23;;;;;;;;;;5082959;28;20189;-78
2022/12/04 10:54:26;;;;;;;18.60;13.00;;;;;;;;;;5089346;28;20192;-79
2022/12/04 10:56:57;;;;;;;20.37;12.97;;;;;;;;;;5081588;28;20639;-78
2022/12/04 10:59:24;;;;;;;20.13;12.70;;;;;;;;;;5089072;28;20209;-78
2022/12/04 11:01:52;;;;;;;19.10;12.73;;;;;;;;;;5085036;28;20181;-78
2022/12/04 11:04:20;;;;;;;19.87;12.67;;;;;;;;;;5084086;28;20702;-78
2022/12/04 11:06:48;;;;;;;19.00;12.27;;;;;;;;;;5081680;28;20254;-79
2022/12/04 11:09:24;;;;;;;17.27;11.40;;;;;;;;;;5086597;28;20227;-76
2022/12/04 11:11:51;;;;;;;18.33;12.70;;;;;;;;;;5079958;28;20226;-79
2022/12/04 11:14:22;;;;;;;20.60;13.17;;;;;;;;;;5081560;28;20180;-79
2022/12/04 11:16:49;;;;;;;20.07;12.90;;;;;;;;;;5085289;28;21048;-78
2022/12/04 11:19:19;;;;;;;20.00;12.67;;;;;;;;;;5078403;28;20643;-80
2022/12/04 11:21:45;;;;;;;22.23;12.13;;;;;;;;;;5067693;28;20184;-80
2022/12/04 11:24:19;;;;;;;22.90;14.23;;;;;;;;;;5072198;28;20189;-79
2022/12/04 11:26:46;;;;;;;19.07;13.10;;;;;;;;;;5083778;28;20603;-79
2022/12/04 11:29:14;;;;;;;20.73;12.73;;;;;;;;;;5072925;28;20199;-79
2022/12/04 11:31:42;;;;;;;20.77;13.17;;;;;;;;;;5079792;28;20183;-78
2022/12/04 11:34:08;;;;;;;21.07;12.77;;;;;;;;;;5067041;28;20169;-79
2022/12/04 11:36:39;;;;;;;22.70;14.37;;;;;;;;;;5079365;28;20177;-78
2022/12/04 11:39:05;;;;;;;20.73;13.20;;;;;;;;;;5079507;28;20213;-75
2022/12/04 11:41:31;;;;;;;20.20;12.80;;;;;;;;;;5084912;28;20189;-79
2022/12/04 11:43:58;;;;;;;25.10;13.47;;;;;;;;;;5085260;28;20230;-78
2022/12/04 11:46:27;;;;;;;22.90;13.53;;;;;;;;;;5080658;28;20176;-78
2022/12/04 11:48:53;;;;;;;21.27;13.97;;;;;;;;;;5081202;28;20220;-77
2022/12/04 11:51:38;;;;;;;21.80;13.17;;;;;;;;;;5077349;28;20172;-78
2022/12/04 11:54:10;;;;;;;22.87;13.83;;;;;;;;;;5080422;28;20180;-81
2022/12/04 11:56:39;;;;;;;24.03;14.50;;;;;;;;;;5083120;28;20179;-80
2022/12/04 11:59:24;;;;;;;21.50;13.30;;;;;;;;;;5088075;28;20200;-79
2022/12/04 12:02:14;;;;;;;21.47;13.53;;;;;;;;;;5082173;28;21707;-79
2022/12/04 12:04:47;;;;;;;22.13;13.90;;;;;;;;;;5066237;28;20546;-81
2022/12/04 12:07:16;;;;;;;25.27;14.73;;;;;;;;;;5071482;28;20590;-80
2022/12/04 12:09:56;;;;;;;23.83;14.60;;;;;;;;;;5090720;28;20263;-80
2022/12/04 12:12:41;;;;;;;23.70;14.50;;;;;;;;;;5090676;28;20195;-81
2022/12/04 12:15:20;;;;;;;24.33;14.00;;;;;;;;;;5093866;28;20175;-81
2022/12/04 12:17:46;;;;;;;25.77;15.03;;;;;;;;;;5081380;28;20205;-82
2022/12/04 12:20:15;;;;;;;37.43;19.43;;;;;;;;;;5071228;28;20193;-80
2022/12/04 12:22:47;;;;;;;34.77;20.10;;;;;;;;;;5077727;28;20187;-77
2022/12/04 12:25:18;;;;;;;30.47;18.30;;;;;;;;;;5079848;28;20212;-77
2022/12/04 12:28:03;;;;;;;29.43;18.23;;;;;;;;;;5078900;28;20273;-76
2022/12/04 12:30:59;;;;;;;25.83;15.97;;;;;;;;;;5077714;28;20263;-77
2022/12/04 12:33:35;;;;;;;24.83;15.07;;;;;;;;;;5001042;28;20186;-77
2022/12/04 12:36:12;;;;;;;26.03;15.60;;;;;;;;;;5075914;28;20663;-77
2022/12/04 12:38:45;;;;;;;25.60;15.37;;;;;;;;;;5079483;28;20222;-77
2022/12/04 12:41:19;;;;;;;27.40;15.23;;;;;;;;;;5078609;28;20235;-76
2022/12/04 12:43:54;;;;;;;28.83;15.73;;;;;;;;;;5072779;28;20176;-79
2022/12/04 12:46:29;;;;;;;25.10;15.53;;;;;;;;;;5087308;28;20235;-76
2022/12/04 12:49:04;;;;;;;26.33;15.43;;;;;;;;;;5062570;28;20213;-78
2022/12/04 12:51:33;;;;;;;25.73;15.00;;;;;;;;;;5078209;28;20765;-79
2022/12/04 12:54:29;;;;;;;28.33;15.33;;;;;;;;;;5073107;28;20212;-77
2022/12/04 12:57:01;;;;;;;28.70;16.20;;;;;;;;;;4995091;28;20750;-76
2022/12/04 12:59:28;;;;;;;28.47;16.80;;;;;;;;;;5076366;28;20190;-76
2022/12/04 13:02:13;;;;;;;30.93;16.53;;;;;;;;;;5080754;28;20763;-76
2022/12/04 13:04:49;;;;;;;29.60;16.33;;;;;;;;;;5081042;28;20204;-77
2022/12/04 13:07:21;;;;;;;26.43;15.40;;;;;;;;;;5073830;28;20254;-76
2022/12/04 13:10:10;;;;;;;28.80;16.30;;;;;;;;;;5080938;28;20228;-77
2022/12/04 13:12:43;;;;;;;28.17;16.53;;;;;;;;;;5067819;28;20602;-77
2022/12/04 13:15:17;;;;;;;27.33;16.87;;;;;;;;;;5085302;28;20557;-76
2022/12/04 13:17:47;;;;;;;31.97;17.03;;;;;;;;;;5082820;28;20212;-76
2022/12/04 13:20:16;;;;;;;26.37;14.93;;;;;;;;;;5081641;28;20298;-76
2022/12/04 13:23:01;;;;;;;29.77;16.23;;;;;;;;;;5082573;28;20267;-77
2022/12/04 13:25:40;;;;;;;28.13;16.50;;;;;;;;;;5065391;28;20188;-77
2022/12/04 13:28:23;;;;;;;32.30;17.17;;;;;;;;;;5087160;28;20210;-77
2022/12/04 13:30:52;;;;;;;28.97;15.97;;;;;;;;;;5087718;28;20943;-76
2022/12/04 13:33:32;;;;;;;30.70;18.40;;;;;;;;;;5086683;28;20173;-77
2022/12/04 13:35:58;;;;;;;31.93;17.90;;;;;;;;;;5080943;28;20545;-78
2022/12/04 13:38:33;;;;;;;32.73;17.47;;;;;;;;;;5083812;28;20200;-76
2022/12/04 13:41:02;;;;;;;27.30;16.50;;;;;;;;;;5064142;28;20241;-76
2022/12/04 13:43:33;;;;;;;25.63;15.63;;;;;;;;;;5082125;28;20853;-77
2022/12/04 13:46:01;;;;;;;27.50;15.47;;;;;;;;;;5084148;28;20188;-77
2022/12/04 13:48:29;;;;;;;25.40;16.30;;;;;;;;;;5070197;28;20269;-76
2022/12/04 13:51:04;;;;;;;27.37;14.40;;;;;;;;;;5087091;28;20172;-76
2022/12/04 13:53:31;;;;;;;27.20;16.73;;;;;;;;;;5081610;28;20192;-76
2022/12/04 13:55:58;;;;;;;27.23;16.17;;;;;;;;;;5086091;28;20188;-76
2022/12/04 13:58:27;;;;;;;28.70;15.77;;;;;;;;;;5085496;28;20341;-76
2022/12/04 14:01:05;;;;;;;30.73;16.23;;;;;;;;;;5067292;28;20246;-77
2022/12/04 14:03:37;;;;;;;28.23;15.70;;;;;;;;;;5066799;28;20669;-76
2022/12/04 14:06:04;;;;;;;28.17;15.97;;;;;;;;;;5085612;28;20180;-76
2022/12/04 14:08:35;;;;;;;28.97;15.80;;;;;;;;;;5084788;28;20216;-76
2022/12/04 14:11:06;;;;;;;27.87;16.17;;;;;;;;;;5082086;28;20180;-76
2022/12/04 14:13:42;;;;;;;29.27;16.70;;;;;;;;;;5078681;28;20188;-77
2022/12/04 14:16:21;;;;;;;30.37;17.40;;;;;;;;;;5080296;28;20229;-76
2022/12/04 14:18:49;;;;;;;29.80;17.33;;;;;;;;;;5072420;28;20223;-76
2022/12/04 14:21:15;;;;;;;30.87;17.17;;;;;;;;;;5080851;28;20675;-76
2022/12/04 14:23:42;;;;;;;29.97;18.10;;;;;;;;;;5080648;28;20274;-76
2022/12/04 14:26:30;;;;;;;32.93;18.33;;;;;;;;;;5082401;28;20192;-77
2022/12/04 14:29:06;;;;;;;30.97;17.93;;;;;;;;;;5085209;28;20239;-76
2022/12/04 14:31:35;;;;;;;34.83;17.23;;;;;;;;;;5087058;28;20188;-76
2022/12/04 14:34:03;;;;;;;29.87;17.90;;;;;;;;;;5086587;28;20181;-76
2022/12/04 14:36:33;;;;;;;29.03;16.77;;;;;;;;;;5071167;28;20177;-76
2022/12/04 14:39:04;;;;;;;29.13;16.80;;;;;;;;;;5089051;28;20287;-76
2022/12/04 14:41:31;;;;;;;26.83;16.03;;;;;;;;;;5077472;28;20196;-76
2022/12/04 14:43:58;;;;;;;26.50;16.50;;;;;;;;;;5087387;28;20191;-76
2022/12/04 14:46:44;;;;;;;28.37;16.60;;;;;;;;;;5072540;28;20237;-76
2022/12/04 14:49:11;;;;;;;27.80;16.70;;;;;;;;;;5087490;28;20212;-76